Terminal Aerodrome Forecast
Issued by NWS

Home | Current Version | Previous Version | Text Only | Print | Product List | Glossary On
Versions: 1 2 3 4 5 6 7 8 9 10 11 12 13 14 15 16
384
FTUS46 KSGX 251720
TAFSNA
TAF
KSNA 251720Z 2518/2618 22005KT P6SM FEW010
     FM252000 22008KT P6SM SKC
     FM260200 VRB06KT P6SM FEW004
     FM261100 VRB03KT P6SM VCFG SCT004
     FM261600 VRB06KT P6SM FEW006=

USA.gov is the U.S. government's official web portal to all federal, state and local government web resources and services.